sensor_id;sensor_type;location;lat;lon;timestamp;temperature;humidity
55213;DHT22;41083;52.932;6.674;2023-08-21T00:01:33;16.40;99.90
55213;DHT22;41083;52.932;6.674;2023-08-21T00:03:59;16.30;99.90
55213;DHT22;41083;52.932;6.674;2023-08-21T00:06:24;16.30;99.90
55213;DHT22;41083;52.932;6.674;2023-08-21T00:08:50;16.20;99.90
55213;DHT22;41083;52.932;6.674;2023-08-21T00:11:16;16.30;99.90
55213;DHT22;41083;52.932;6.674;2023-08-21T00:13:41;16.30;99.90
55213;DHT22;41083;52.932;6.674;2023-08-21T00:16:10;16.20;99.90
55213;DHT22;41083;52.932;6.674;2023-08-21T00:18:36;16.20;99.90
55213;DHT22;41083;52.932;6.674;2023-08-21T00:21:02;16.20;99.90
55213;DHT22;41083;52.932;6.674;2023-08-21T00:23:28;16.10;99.90
55213;DHT22;41083;52.932;6.674;2023-08-21T00:25:53;16.10;99.90
55213;DHT22;41083;52.932;6.674;2023-08-21T00:28:19;16.10;99.90
55213;DHT22;41083;52.932;6.674;2023-08-21T00:30:44;16.10;99.90
55213;DHT22;41083;52.932;6.674;2023-08-21T00:33:10;16.10;99.90
55213;DHT22;41083;52.932;6.674;2023-08-21T00:35:35;16.10;99.90
55213;DHT22;41083;52.932;6.674;2023-08-21T00:38:01;16.10;99.90
55213;DHT22;41083;52.932;6.674;2023-08-21T00:40:26;16.00;99.90
55213;DHT22;41083;52.932;6.674;2023-08-21T00:42:52;16.00;99.90
55213;DHT22;41083;52.932;6.674;2023-08-21T00:45:17;16.00;99.90
55213;DHT22;41083;52.932;6.674;2023-08-21T00:47:43;16.00;99.90
55213;DHT22;41083;52.932;6.674;2023-08-21T00:50:09;16.00;99.90
55213;DHT22;41083;52.932;6.674;2023-08-21T00:52:38;15.90;99.90
55213;DHT22;41083;52.932;6.674;2023-08-21T00:55:05;15.90;99.90
55213;DHT22;41083;52.932;6.674;2023-08-21T00:57:31;15.90;99.90
55213;DHT22;41083;52.932;6.674;2023-08-21T00:59:59;15.80;99.90
55213;DHT22;41083;52.932;6.674;2023-08-21T01:02:25;15.80;99.90
55213;DHT22;41083;52.932;6.674;2023-08-21T01:04:50;15.80;99.90
55213;DHT22;41083;52.932;6.674;2023-08-21T01:07:16;15.80;99.90
55213;DHT22;41083;52.932;6.674;2023-08-21T01:15:12;15.70;99.90
55213;DHT22;41083;52.932;6.674;2023-08-21T01:17:39;15.70;99.90
55213;DHT22;41083;52.932;6.674;2023-08-21T01:20:07;15.70;99.90
55213;DHT22;41083;52.932;6.674;2023-08-21T01:22:40;15.70;99.90
55213;DHT22;41083;52.932;6.674;2023-08-21T01:25:07;15.70;99.90
55213;DHT22;41083;52.932;6.674;2023-08-21T01:27:33;15.70;99.90
55213;DHT22;41083;52.932;6.674;2023-08-21T01:30:00;15.70;99.90
55213;DHT22;41083;52.932;6.674;2023-08-21T01:32:32;15.60;99.90
55213;DHT22;41083;52.932;6.674;2023-08-21T01:35:00;15.60;99.90
55213;DHT22;41083;52.932;6.674;2023-08-21T01:37:28;15.60;99.90
55213;DHT22;41083;52.932;6.674;2023-08-21T01:39:54;15.60;99.90
55213;DHT22;41083;52.932;6.674;2023-08-21T01:42:19;15.50;99.90
55213;DHT22;41083;52.932;6.674;2023-08-21T01:44:45;15.50;99.90
55213;DHT22;41083;52.932;6.674;2023-08-21T01:47:12;15.50;99.90
55213;DHT22;41083;52.932;6.674;2023-08-21T01:49:37;15.40;99.90
55213;DHT22;41083;52.932;6.674;2023-08-21T01:52:03;15.40;99.90
55213;DHT22;41083;52.932;6.674;2023-08-21T01:54:29;15.40;99.90
55213;DHT22;41083;52.932;6.674;2023-08-21T01:56:54;15.40;99.90
55213;DHT22;41083;52.932;6.674;2023-08-21T01:59:21;15.40;99.90
55213;DHT22;41083;52.932;6.674;2023-08-21T02:01:46;15.40;99.90
55213;DHT22;41083;52.932;6.674;2023-08-21T02:04:12;15.40;99.90
55213;DHT22;41083;52.932;6.674;2023-08-21T02:06:37;15.30;99.90
55213;DHT22;41083;52.932;6.674;2023-08-21T02:09:03;15.30;99.90
55213;DHT22;41083;52.932;6.674;2023-08-21T02:11:29;15.30;99.90
55213;DHT22;41083;52.932;6.674;2023-08-21T02:13:54;15.30;99.90
55213;DHT22;41083;52.932;6.674;2023-08-21T02:16:20;15.30;99.90
55213;DHT22;41083;52.932;6.674;2023-08-21T02:18:47;15.30;99.90
55213;DHT22;41083;52.932;6.674;2023-08-21T02:21:13;15.20;99.90
55213;DHT22;41083;52.932;6.674;2023-08-21T02:23:38;15.20;99.90
55213;DHT22;41083;52.932;6.674;2023-08-21T02:26:04;15.20;99.90
55213;DHT22;41083;52.932;6.674;2023-08-21T02:28:30;15.20;99.90
55213;DHT22;41083;52.932;6.674;2023-08-21T02:30:55;15.20;99.90
55213;DHT22;41083;52.932;6.674;2023-08-21T02:33:21;15.20;99.90
55213;DHT22;41083;52.932;6.674;2023-08-21T02:35:46;15.20;99.90
55213;DHT22;41083;52.932;6.674;2023-08-21T02:38:12;15.10;99.90
55213;DHT22;41083;52.932;6.674;2023-08-21T02:40:38;15.10;99.90
55213;DHT22;41083;52.932;6.674;2023-08-21T02:43:03;15.10;99.90
55213;DHT22;41083;52.932;6.674;2023-08-21T02:45:29;15.00;99.90
55213;DHT22;41083;52.932;6.674;2023-08-21T02:47:55;15.00;99.90
55213;DHT22;41083;52.932;6.674;2023-08-21T02:50:20;15.00;99.90
55213;DHT22;41083;52.932;6.674;2023-08-21T02:52:46;15.00;99.90
55213;DHT22;41083;52.932;6.674;2023-08-21T02:55:12;15.00;99.90
55213;DHT22;41083;52.932;6.674;2023-08-21T02:57:37;15.00;99.90
55213;DHT22;41083;52.932;6.674;2023-08-21T03:00:03;14.90;99.90
55213;DHT22;41083;52.932;6.674;2023-08-21T03:02:29;15.00;99.90
55213;DHT22;41083;52.932;6.674;2023-08-21T03:04:55;14.90;99.90
55213;DHT22;41083;52.932;6.674;2023-08-21T03:07:20;14.90;99.90
55213;DHT22;41083;52.932;6.674;2023-08-21T03:09:46;14.90;99.90
55213;DHT22;41083;52.932;6.674;2023-08-21T03:12:12;14.80;99.90
55213;DHT22;41083;52.932;6.674;2023-08-21T03:14:38;14.80;99.90
55213;DHT22;41083;52.932;6.674;2023-08-21T03:17:04;14.80;99.90
55213;DHT22;41083;52.932;6.674;2023-08-21T03:19:29;14.80;99.90
55213;DHT22;41083;52.932;6.674;2023-08-21T03:21:55;14.80;99.90
55213;DHT22;41083;52.932;6.674;2023-08-21T03:24:20;14.80;99.90
55213;DHT22;41083;52.932;6.674;2023-08-21T03:26:46;14.80;99.90
55213;DHT22;41083;52.932;6.674;2023-08-21T03:29:12;14.80;99.90
55213;DHT22;41083;52.932;6.674;2023-08-21T03:31:37;14.70;99.90
55213;DHT22;41083;52.932;6.674;2023-08-21T03:34:03;14.70;99.90
55213;DHT22;41083;52.932;6.674;2023-08-21T03:36:28;14.70;99.90
55213;DHT22;41083;52.932;6.674;2023-08-21T03:38:58;14.70;99.90
55213;DHT22;41083;52.932;6.674;2023-08-21T03:41:23;14.70;99.90
55213;DHT22;41083;52.932;6.674;2023-08-21T03:43:49;14.70;99.90
55213;DHT22;41083;52.932;6.674;2023-08-21T03:46:15;14.70;99.90
55213;DHT22;41083;52.932;6.674;2023-08-21T03:48:40;14.70;99.90
55213;DHT22;41083;52.932;6.674;2023-08-21T03:51:06;14.60;99.90
55213;DHT22;41083;52.932;6.674;2023-08-21T03:53:31;14.60;99.90
55213;DHT22;41083;52.932;6.674;2023-08-21T03:55:57;14.60;99.90
55213;DHT22;41083;52.932;6.674;2023-08-21T03:58:23;14.60;99.90
55213;DHT22;41083;52.932;6.674;2023-08-21T04:00:51;14.60;99.90
55213;DHT22;41083;52.932;6.674;2023-08-21T04:03:16;14.60;99.90
55213;DHT22;41083;52.932;6.674;2023-08-21T04:05:42;14.50;99.90
55213;DHT22;41083;52.932;6.674;2023-08-21T04:08:07;14.50;99.90
55213;DHT22;41083;52.932;6.674;2023-08-21T04:10:33;14.50;99.90
55213;DHT22;41083;52.932;6.674;2023-08-21T04:12:59;14.50;99.90
55213;DHT22;41083;52.932;6.674;2023-08-21T04:15:25;14.50;99.90
55213;DHT22;41083;52.932;6.674;2023-08-21T04:17:50;14.50;99.90
55213;DHT22;41083;52.932;6.674;2023-08-21T04:20:16;14.50;99.90
55213;DHT22;41083;52.932;6.674;2023-08-21T04:22:42;14.50;99.90
55213;DHT22;41083;52.932;6.674;2023-08-21T04:25:07;14.50;99.90
55213;DHT22;41083;52.932;6.674;2023-08-21T04:27:33;14.50;99.90
55213;DHT22;41083;52.932;6.674;2023-08-21T04:29:58;14.50;99.90
55213;DHT22;41083;52.932;6.674;2023-08-21T04:32:24;14.50;99.90
55213;DHT22;41083;52.932;6.674;2023-08-21T04:34:51;14.50;99.90
55213;DHT22;41083;52.932;6.674;2023-08-21T04:37:16;14.40;99.90
55213;DHT22;41083;52.932;6.674;2023-08-21T04:39:42;14.40;99.90
55213;DHT22;41083;52.932;6.674;2023-08-21T04:42:07;14.40;99.90
55213;DHT22;41083;52.932;6.674;2023-08-21T04:44:33;14.40;99.90
55213;DHT22;41083;52.932;6.674;2023-08-21T04:47:22;14.40;99.90
55213;DHT22;41083;52.932;6.674;2023-08-21T04:49:51;14.40;99.90
55213;DHT22;41083;52.932;6.674;2023-08-21T04:52:17;14.40;99.90
55213;DHT22;41083;52.932;6.674;2023-08-21T04:54:43;14.40;99.90
55213;DHT22;41083;52.932;6.674;2023-08-21T04:57:09;14.40;99.90
55213;DHT22;41083;52.932;6.674;2023-08-21T04:59:35;14.40;99.90
55213;DHT22;41083;52.932;6.674;2023-08-21T05:02:02;14.30;99.90
55213;DHT22;41083;52.932;6.674;2023-08-21T05:04:27;14.30;99.90
55213;DHT22;41083;52.932;6.674;2023-08-21T05:06:53;14.30;99.90
55213;DHT22;41083;52.932;6.674;2023-08-21T05:09:19;14.30;99.90
55213;DHT22;41083;52.932;6.674;2023-08-21T05:11:44;14.30;99.90
55213;DHT22;41083;52.932;6.674;2023-08-21T05:14:10;14.40;99.90
55213;DHT22;41083;52.932;6.674;2023-08-21T05:16:35;14.40;99.90
55213;DHT22;41083;52.932;6.674;2023-08-21T05:19:01;14.40;99.90
55213;DHT22;41083;52.932;6.674;2023-08-21T05:21:27;14.40;99.90
55213;DHT22;41083;52.932;6.674;2023-08-21T05:23:53;14.40;99.90
55213;DHT22;41083;52.932;6.674;2023-08-21T05:26:19;14.40;99.90
55213;DHT22;41083;52.932;6.674;2023-08-21T05:28:45;14.50;99.90
55213;DHT22;41083;52.932;6.674;2023-08-21T05:31:10;14.50;99.90
55213;DHT22;41083;52.932;6.674;2023-08-21T05:33:36;14.50;99.90
55213;DHT22;41083;52.932;6.674;2023-08-21T05:36:02;14.50;99.90
55213;DHT22;41083;52.932;6.674;2023-08-21T05:38:27;14.50;99.90
55213;DHT22;41083;52.932;6.674;2023-08-21T05:40:53;14.50;99.90
55213;DHT22;41083;52.932;6.674;2023-08-21T05:43:19;14.60;99.90
55213;DHT22;41083;52.932;6.674;2023-08-21T05:45:44;14.60;99.90
55213;DHT22;41083;52.932;6.674;2023-08-21T05:48:10;14.60;99.90
55213;DHT22;41083;52.932;6.674;2023-08-21T05:50:35;14.60;99.90
55213;DHT22;41083;52.932;6.674;2023-08-21T05:53:05;14.60;99.90
55213;DHT22;41083;52.932;6.674;2023-08-21T05:55:30;14.70;99.90
55213;DHT22;41083;52.932;6.674;2023-08-21T05:57:56;14.70;99.90
55213;DHT22;41083;52.932;6.674;2023-08-21T06:00:21;14.70;99.90
55213;DHT22;41083;52.932;6.674;2023-08-21T06:02:47;14.80;99.90
55213;DHT22;41083;52.932;6.674;2023-08-21T06:05:13;14.80;99.90
55213;DHT22;41083;52.932;6.674;2023-08-21T06:07:38;14.80;99.90
55213;DHT22;41083;52.932;6.674;2023-08-21T06:10:09;14.90;99.90
55213;DHT22;41083;52.932;6.674;2023-08-21T06:12:41;15.00;99.90
55213;DHT22;41083;52.932;6.674;2023-08-21T06:15:07;15.00;99.90
55213;DHT22;41083;52.932;6.674;2023-08-21T06:17:37;15.10;99.90
55213;DHT22;41083;52.932;6.674;2023-08-21T06:20:03;15.10;99.90
55213;DHT22;41083;52.932;6.674;2023-08-21T06:22:32;15.10;99.90
55213;DHT22;41083;52.932;6.674;2023-08-21T06:24:57;15.20;99.90
55213;DHT22;41083;52.932;6.674;2023-08-21T06:27:23;15.20;99.90
55213;DHT22;41083;52.932;6.674;2023-08-21T06:29:49;15.30;99.90
55213;DHT22;41083;52.932;6.674;2023-08-21T06:32:14;15.30;99.90
55213;DHT22;41083;52.932;6.674;2023-08-21T06:34:40;15.40;99.90
55213;DHT22;41083;52.932;6.674;2023-08-21T06:37:05;15.50;99.90
55213;DHT22;41083;52.932;6.674;2023-08-21T06:39:31;15.50;99.90
55213;DHT22;41083;52.932;6.674;2023-08-21T06:41:57;15.60;99.90
55213;DHT22;41083;52.932;6.674;2023-08-21T06:44:22;15.70;99.90
55213;DHT22;41083;52.932;6.674;2023-08-21T06:46:48;15.70;99.90
55213;DHT22;41083;52.932;6.674;2023-08-21T06:49:14;15.80;99.90
55213;DHT22;41083;52.932;6.674;2023-08-21T06:51:39;15.90;99.90
55213;DHT22;41083;52.932;6.674;2023-08-21T06:54:05;16.00;99.90
55213;DHT22;41083;52.932;6.674;2023-08-21T06:56:31;16.10;99.90
55213;DHT22;41083;52.932;6.674;2023-08-21T06:58:56;16.20;99.90
55213;DHT22;41083;52.932;6.674;2023-08-21T07:01:22;16.30;99.90
55213;DHT22;41083;52.932;6.674;2023-08-21T07:03:48;16.40;99.90
55213;DHT22;41083;52.932;6.674;2023-08-21T07:06:13;16.50;99.90
55213;DHT22;41083;52.932;6.674;2023-08-21T07:08:39;16.60;99.90
55213;DHT22;41083;52.932;6.674;2023-08-21T07:11:06;16.60;99.90
55213;DHT22;41083;52.932;6.674;2023-08-21T07:13:34;16.70;99.90
55213;DHT22;41083;52.932;6.674;2023-08-21T07:15:59;16.80;99.90
55213;DHT22;41083;52.932;6.674;2023-08-21T07:18:30;16.80;99.90
55213;DHT22;41083;52.932;6.674;2023-08-21T07:20:56;16.90;99.90
55213;DHT22;41083;52.932;6.674;2023-08-21T07:23:21;16.90;99.90
55213;DHT22;41083;52.932;6.674;2023-08-21T07:25:47;17.00;99.90
55213;DHT22;41083;52.932;6.674;2023-08-21T07:28:12;17.10;99.90
55213;DHT22;41083;52.932;6.674;2023-08-21T07:30:38;17.10;99.90
55213;DHT22;41083;52.932;6.674;2023-08-21T07:33:04;17.20;99.90
55213;DHT22;41083;52.932;6.674;2023-08-21T07:35:31;17.20;99.90
55213;DHT22;41083;52.932;6.674;2023-08-21T07:37:56;17.20;99.90
55213;DHT22;41083;52.932;6.674;2023-08-21T07:40:22;17.30;99.90
55213;DHT22;41083;52.932;6.674;2023-08-21T07:42:48;17.30;99.90
55213;DHT22;41083;52.932;6.674;2023-08-21T07:45:13;17.40;99.90
55213;DHT22;41083;52.932;6.674;2023-08-21T07:47:39;17.40;99.90
55213;DHT22;41083;52.932;6.674;2023-08-21T07:50:08;17.40;99.90
55213;DHT22;41083;52.932;6.674;2023-08-21T07:52:35;17.50;99.90
55213;DHT22;41083;52.932;6.674;2023-08-21T07:55:00;17.60;99.90
55213;DHT22;41083;52.932;6.674;2023-08-21T07:57:29;17.60;99.90
55213;DHT22;41083;52.932;6.674;2023-08-21T07:59:55;17.70;99.90
55213;DHT22;41083;52.932;6.674;2023-08-21T08:02:22;17.70;99.90
55213;DHT22;41083;52.932;6.674;2023-08-21T08:04:48;17.80;99.90
55213;DHT22;41083;52.932;6.674;2023-08-21T08:07:13;17.80;99.90
55213;DHT22;41083;52.932;6.674;2023-08-21T08:09:39;17.90;99.90
55213;DHT22;41083;52.932;6.674;2023-08-21T08:12:05;17.90;99.90
55213;DHT22;41083;52.932;6.674;2023-08-21T08:14:31;17.90;99.90
55213;DHT22;41083;52.932;6.674;2023-08-21T08:16:56;18.00;99.90
55213;DHT22;41083;52.932;6.674;2023-08-21T08:19:25;18.00;99.90
55213;DHT22;41083;52.932;6.674;2023-08-21T08:21:51;18.00;99.90
55213;DHT22;41083;52.932;6.674;2023-08-21T08:24:16;18.10;99.90
55213;DHT22;41083;52.932;6.674;2023-08-21T08:26:42;18.20;99.90
55213;DHT22;41083;52.932;6.674;2023-08-21T08:29:09;18.20;99.90
55213;DHT22;41083;52.932;6.674;2023-08-21T08:31:34;18.20;99.90
55213;DHT22;41083;52.932;6.674;2023-08-21T08:34:00;18.20;99.90
55213;DHT22;41083;52.932;6.674;2023-08-21T08:36:26;18.30;99.90
55213;DHT22;41083;52.932;6.674;2023-08-21T08:38:51;18.30;99.90
55213;DHT22;41083;52.932;6.674;2023-08-21T08:41:25;18.40;99.90
55213;DHT22;41083;52.932;6.674;2023-08-21T08:43:57;18.40;99.90
55213;DHT22;41083;52.932;6.674;2023-08-21T08:46:27;18.50;99.90
55213;DHT22;41083;52.932;6.674;2023-08-21T08:48:54;18.50;99.90
55213;DHT22;41083;52.932;6.674;2023-08-21T08:51:20;18.60;99.90
55213;DHT22;41083;52.932;6.674;2023-08-21T08:53:47;18.60;99.90
55213;DHT22;41083;52.932;6.674;2023-08-21T08:56:13;18.70;99.90
55213;DHT22;41083;52.932;6.674;2023-08-21T08:58:38;18.70;99.90
55213;DHT22;41083;52.932;6.674;2023-08-21T09:01:05;18.80;99.90
55213;DHT22;41083;52.932;6.674;2023-08-21T09:03:30;18.80;99.90
55213;DHT22;41083;52.932;6.674;2023-08-21T09:05:56;18.90;99.90
55213;DHT22;41083;52.932;6.674;2023-08-21T09:08:25;18.90;99.90
55213;DHT22;41083;52.932;6.674;2023-08-21T09:10:51;19.00;99.90
55213;DHT22;41083;52.932;6.674;2023-08-21T09:13:18;19.00;99.90
55213;DHT22;41083;52.932;6.674;2023-08-21T09:15:46;19.10;99.90
55213;DHT22;41083;52.932;6.674;2023-08-21T09:18:13;19.10;99.90
55213;DHT22;41083;52.932;6.674;2023-08-21T09:20:40;19.10;99.90
55213;DHT22;41083;52.932;6.674;2023-08-21T09:23:06;19.20;99.90
55213;DHT22;41083;52.932;6.674;2023-08-21T09:25:35;19.20;99.90
55213;DHT22;41083;52.932;6.674;2023-08-21T09:28:07;19.20;99.90
55213;DHT22;41083;52.932;6.674;2023-08-21T09:30:50;19.30;99.90
55213;DHT22;41083;52.932;6.674;2023-08-21T09:33:20;19.30;99.90
55213;DHT22;41083;52.932;6.674;2023-08-21T09:35:47;19.40;99.90
55213;DHT22;41083;52.932;6.674;2023-08-21T09:38:13;19.40;99.90
55213;DHT22;41083;52.932;6.674;2023-08-21T09:40:44;19.40;99.90
55213;DHT22;41083;52.932;6.674;2023-08-21T09:43:15;19.50;99.90
55213;DHT22;41083;52.932;6.674;2023-08-21T09:45:40;19.60;99.90
55213;DHT22;41083;52.932;6.674;2023-08-21T09:48:06;19.60;99.90
55213;DHT22;41083;52.932;6.674;2023-08-21T09:50:32;19.60;99.90
55213;DHT22;41083;52.932;6.674;2023-08-21T09:52:58;19.70;99.90
55213;DHT22;41083;52.932;6.674;2023-08-21T09:55:24;19.70;99.90
55213;DHT22;41083;52.932;6.674;2023-08-21T09:57:58;19.70;99.90
55213;DHT22;41083;52.932;6.674;2023-08-21T10:00:32;19.70;99.90
55213;DHT22;41083;52.932;6.674;2023-08-21T10:03:02;19.80;99.90
55213;DHT22;41083;52.932;6.674;2023-08-21T10:05:30;19.80;99.90
55213;DHT22;41083;52.932;6.674;2023-08-21T10:08:00;19.90;99.90
55213;DHT22;41083;52.932;6.674;2023-08-21T10:10:32;20.00;99.90
55213;DHT22;41083;52.932;6.674;2023-08-21T10:12:58;20.00;99.90
55213;DHT22;41083;52.932;6.674;2023-08-21T10:15:24;20.00;99.90
55213;DHT22;41083;52.932;6.674;2023-08-21T10:17:50;20.10;99.90
55213;DHT22;41083;52.932;6.674;2023-08-21T10:20:21;20.10;99.90
55213;DHT22;41083;52.932;6.674;2023-08-21T10:22:49;20.10;99.90
55213;DHT22;41083;52.932;6.674;2023-08-21T10:25:19;20.10;99.90
55213;DHT22;41083;52.932;6.674;2023-08-21T10:27:50;20.10;99.90
55213;DHT22;41083;52.932;6.674;2023-08-21T10:30:22;20.20;99.90
55213;DHT22;41083;52.932;6.674;2023-08-21T10:32:50;20.20;99.90
55213;DHT22;41083;52.932;6.674;2023-08-21T10:35:19;20.20;99.90
55213;DHT22;41083;52.932;6.674;2023-08-21T10:38:15;20.30;99.90
55213;DHT22;41083;52.932;6.674;2023-08-21T10:41:05;20.40;99.90
55213;DHT22;41083;52.932;6.674;2023-08-21T10:43:39;20.40;99.90
55213;DHT22;41083;52.932;6.674;2023-08-21T10:46:05;20.50;99.90
55213;DHT22;41083;52.932;6.674;2023-08-21T10:48:31;20.50;99.90
55213;DHT22;41083;52.932;6.674;2023-08-21T10:51:00;20.60;99.90
55213;DHT22;41083;52.932;6.674;2023-08-21T10:53:26;20.60;99.90
55213;DHT22;41083;52.932;6.674;2023-08-21T10:55:53;20.60;99.90
55213;DHT22;41083;52.932;6.674;2023-08-21T10:58:19;20.60;99.90
55213;DHT22;41083;52.932;6.674;2023-08-21T11:00:45;20.60;99.90
55213;DHT22;41083;52.932;6.674;2023-08-21T11:03:11;20.60;99.90
55213;DHT22;41083;52.932;6.674;2023-08-21T11:05:36;20.70;99.90
55213;DHT22;41083;52.932;6.674;2023-08-21T11:08:02;20.70;99.90
55213;DHT22;41083;52.932;6.674;2023-08-21T11:10:30;20.70;99.90
55213;DHT22;41083;52.932;6.674;2023-08-21T11:12:57;20.70;99.90
55213;DHT22;41083;52.932;6.674;2023-08-21T11:15:25;20.80;99.90
55213;DHT22;41083;52.932;6.674;2023-08-21T11:18:01;20.80;99.90
55213;DHT22;41083;52.932;6.674;2023-08-21T11:20:35;20.70;99.90
55213;DHT22;41083;52.932;6.674;2023-08-21T11:23:03;20.70;99.90
55213;DHT22;41083;52.932;6.674;2023-08-21T11:25:32;20.70;99.90
55213;DHT22;41083;52.932;6.674;2023-08-21T11:27:58;20.70;99.90
55213;DHT22;41083;52.932;6.674;2023-08-21T11:30:24;20.70;99.90
55213;DHT22;41083;52.932;6.674;2023-08-21T11:33:11;20.80;99.90
55213;DHT22;41083;52.932;6.674;2023-08-21T11:35:40;20.90;99.90
55213;DHT22;41083;52.932;6.674;2023-08-21T11:38:06;20.90;99.90
55213;DHT22;41083;52.932;6.674;2023-08-21T11:40:38;21.00;99.90
55213;DHT22;41083;52.932;6.674;2023-08-21T11:43:04;21.00;99.90
55213;DHT22;41083;52.932;6.674;2023-08-21T11:45:30;21.00;99.90
55213;DHT22;41083;52.932;6.674;2023-08-21T11:47:56;20.90;99.90
55213;DHT22;41083;52.932;6.674;2023-08-21T11:50:22;20.90;99.90
55213;DHT22;41083;52.932;6.674;2023-08-21T11:52:52;20.90;99.90
55213;DHT22;41083;52.932;6.674;2023-08-21T11:55:17;21.00;99.90
55213;DHT22;41083;52.932;6.674;2023-08-21T11:57:50;21.10;99.90
55213;DHT22;41083;52.932;6.674;2023-08-21T12:00:25;21.10;99.90
55213;DHT22;41083;52.932;6.674;2023-08-21T12:02:58;21.10;99.90
55213;DHT22;41083;52.932;6.674;2023-08-21T12:05:26;21.00;99.90
55213;DHT22;41083;52.932;6.674;2023-08-21T12:07:52;21.00;99.90
55213;DHT22;41083;52.932;6.674;2023-08-21T12:10:29;20.90;99.90
55213;DHT22;41083;52.932;6.674;2023-08-21T12:12:55;21.00;99.90
55213;DHT22;41083;52.932;6.674;2023-08-21T12:15:21;21.00;99.90
55213;DHT22;41083;52.932;6.674;2023-08-21T12:17:47;21.00;99.90
55213;DHT22;41083;52.932;6.674;2023-08-21T12:20:12;21.10;99.90
55213;DHT22;41083;52.932;6.674;2023-08-21T12:22:39;21.10;99.90
55213;DHT22;41083;52.932;6.674;2023-08-21T12:25:06;21.20;99.90
55213;DHT22;41083;52.932;6.674;2023-08-21T12:27:32;21.30;99.90
55213;DHT22;41083;52.932;6.674;2023-08-21T12:29:58;21.40;99.90
55213;DHT22;41083;52.932;6.674;2023-08-21T12:32:24;21.50;99.90
55213;DHT22;41083;52.932;6.674;2023-08-21T12:34:49;21.70;99.90
55213;DHT22;41083;52.932;6.674;2023-08-21T12:37:16;21.80;99.90
55213;DHT22;41083;52.932;6.674;2023-08-21T12:39:41;21.80;99.90
55213;DHT22;41083;52.932;6.674;2023-08-21T12:42:07;21.80;99.90
55213;DHT22;41083;52.932;6.674;2023-08-21T12:44:35;21.80;99.90
55213;DHT22;41083;52.932;6.674;2023-08-21T12:47:01;21.90;99.90
55213;DHT22;41083;52.932;6.674;2023-08-21T12:49:26;22.00;99.90
55213;DHT22;41083;52.932;6.674;2023-08-21T12:51:52;22.00;99.90
55213;DHT22;41083;52.932;6.674;2023-08-21T12:54:18;22.00;99.90
55213;DHT22;41083;52.932;6.674;2023-08-21T12:56:43;22.00;99.90
55213;DHT22;41083;52.932;6.674;2023-08-21T12:59:09;22.00;99.90
55213;DHT22;41083;52.932;6.674;2023-08-21T13:01:34;22.00;99.90
55213;DHT22;41083;52.932;6.674;2023-08-21T13:04:01;22.00;99.70
55213;DHT22;41083;52.932;6.674;2023-08-21T13:06:27;22.10;99.50
55213;DHT22;41083;52.932;6.674;2023-08-21T13:08:52;22.20;99.30
55213;DHT22;41083;52.932;6.674;2023-08-21T13:11:18;22.20;99.00
55213;DHT22;41083;52.932;6.674;2023-08-21T13:13:44;22.30;98.70
55213;DHT22;41083;52.932;6.674;2023-08-21T13:16:09;22.30;98.40
55213;DHT22;41083;52.932;6.674;2023-08-21T13:18:35;22.30;98.00
55213;DHT22;41083;52.932;6.674;2023-08-21T13:21:01;22.30;98.30
55213;DHT22;41083;52.932;6.674;2023-08-21T13:23:28;22.30;97.80
55213;DHT22;41083;52.932;6.674;2023-08-21T13:25:54;22.30;97.50
55213;DHT22;41083;52.932;6.674;2023-08-21T13:28:20;22.30;97.70
55213;DHT22;41083;52.932;6.674;2023-08-21T13:30:45;22.30;97.80
55213;DHT22;41083;52.932;6.674;2023-08-21T13:33:13;22.40;97.90
55213;DHT22;41083;52.932;6.674;2023-08-21T13:35:39;22.40;97.50
55213;DHT22;41083;52.932;6.674;2023-08-21T13:38:04;22.50;97.40
55213;DHT22;41083;52.932;6.674;2023-08-21T13:40:31;22.50;97.30
55213;DHT22;41083;52.932;6.674;2023-08-21T13:42:57;22.50;97.10
55213;DHT22;41083;52.932;6.674;2023-08-21T13:45:23;22.40;97.00
55213;DHT22;41083;52.932;6.674;2023-08-21T13:47:49;22.40;97.40
55213;DHT22;41083;52.932;6.674;2023-08-21T13:50:18;22.40;97.20
55213;DHT22;41083;52.932;6.674;2023-08-21T13:52:46;22.40;97.30
55213;DHT22;41083;52.932;6.674;2023-08-21T13:55:13;22.30;97.40
55213;DHT22;41083;52.932;6.674;2023-08-21T13:57:39;22.30;97.70
55213;DHT22;41083;52.932;6.674;2023-08-21T14:00:07;22.30;97.70
55213;DHT22;41083;52.932;6.674;2023-08-21T14:02:35;22.30;97.40
55213;DHT22;41083;52.932;6.674;2023-08-21T14:05:02;22.20;97.20
55213;DHT22;41083;52.932;6.674;2023-08-21T14:07:30;22.30;97.50
55213;DHT22;41083;52.932;6.674;2023-08-21T14:09:56;22.30;97.70
55213;DHT22;41083;52.932;6.674;2023-08-21T14:12:21;22.30;97.80
55213;DHT22;41083;52.932;6.674;2023-08-21T14:14:47;22.40;97.70
55213;DHT22;41083;52.932;6.674;2023-08-21T14:17:12;22.30;97.30
55213;DHT22;41083;52.932;6.674;2023-08-21T14:19:38;22.40;96.90
55213;DHT22;41083;52.932;6.674;2023-08-21T14:22:03;22.40;96.70
55213;DHT22;41083;52.932;6.674;2023-08-21T14:24:30;22.30;96.60
55213;DHT22;41083;52.932;6.674;2023-08-21T14:26:56;22.30;96.70
55213;DHT22;41083;52.932;6.674;2023-08-21T14:29:21;22.30;96.90
55213;DHT22;41083;52.932;6.674;2023-08-21T14:31:47;22.30;97.00
55213;DHT22;41083;52.932;6.674;2023-08-21T14:34:14;22.20;97.10
55213;DHT22;41083;52.932;6.674;2023-08-21T14:36:41;22.20;97.30
55213;DHT22;41083;52.932;6.674;2023-08-21T14:39:06;22.20;96.80
55213;DHT22;41083;52.932;6.674;2023-08-21T14:41:32;22.20;96.50
55213;DHT22;41083;52.932;6.674;2023-08-21T14:43:57;22.30;96.50
55213;DHT22;41083;52.932;6.674;2023-08-21T14:46:23;22.30;96.60
55213;DHT22;41083;52.932;6.674;2023-08-21T14:48:49;22.40;96.80
55213;DHT22;41083;52.932;6.674;2023-08-21T14:51:14;22.50;95.90
55213;DHT22;41083;52.932;6.674;2023-08-21T14:53:40;22.60;95.60
55213;DHT22;41083;52.932;6.674;2023-08-21T14:56:05;22.60;95.30
55213;DHT22;41083;52.932;6.674;2023-08-21T14:58:31;22.50;95.30
55213;DHT22;41083;52.932;6.674;2023-08-21T15:00:56;22.40;95.50
55213;DHT22;41083;52.932;6.674;2023-08-21T15:03:22;22.30;95.80
55213;DHT22;41083;52.932;6.674;2023-08-21T15:05:48;22.30;96.10
55213;DHT22;41083;52.932;6.674;2023-08-21T15:08:13;22.20;96.50
55213;DHT22;41083;52.932;6.674;2023-08-21T15:10:39;22.10;96.70
55213;DHT22;41083;52.932;6.674;2023-08-21T15:13:04;22.10;96.70
55213;DHT22;41083;52.932;6.674;2023-08-21T15:15:30;22.10;96.40
55213;DHT22;41083;52.932;6.674;2023-08-21T15:17:56;22.10;96.20
55213;DHT22;41083;52.932;6.674;2023-08-21T15:20:22;22.20;96.10
55213;DHT22;41083;52.932;6.674;2023-08-21T15:22:47;22.20;95.70
55213;DHT22;41083;52.932;6.674;2023-08-21T15:25:15;22.20;95.40
55213;DHT22;41083;52.932;6.674;2023-08-21T15:27:40;22.30;95.30
55213;DHT22;41083;52.932;6.674;2023-08-21T15:30:06;22.30;95.10
55213;DHT22;41083;52.932;6.674;2023-08-21T15:32:32;22.30;95.10